sensor_id;sensor_type;location;lat;lon;timestamp;P1;durP1;ratioP1;P2;durP2;ratioP2
2710;SDS011;20721;47.402;8.550;2022-07-19T00:00:44;6.04;;;6.04;;
2710;SDS011;20721;47.402;8.550;2022-07-19T00:02:45;5.46;;;5.46;;
2710;SDS011;20721;47.402;8.550;2022-07-19T00:03:44;5.41;;;5.41;;
2710;SDS011;20721;47.402;8.550;2022-07-19T00:04:44;5.94;;;5.94;;
2710;SDS011;20721;47.402;8.550;2022-07-19T00:05:49;5.89;;;5.89;;
2710;SDS011;20721;47.402;8.550;2022-07-19T00:06:44;6.15;;;6.15;;
2710;SDS011;20721;47.402;8.550;2022-07-19T00:07:44;6.01;;;6.01;;
2710;SDS011;20721;47.402;8.550;2022-07-19T00:08:44;6.29;;;6.29;;
2710;SDS011;20721;47.402;8.550;2022-07-19T00:11:49;6.11;;;6.11;;
2710;SDS011;20721;47.402;8.550;2022-07-19T00:12:45;6.05;;;6.05;;
2710;SDS011;20721;47.402;8.550;2022-07-19T00:13:44;6.62;;;6.62;;
2710;SDS011;20721;47.402;8.550;2022-07-19T00:14:44;6.75;;;6.75;;
2710;SDS011;20721;47.402;8.550;2022-07-19T00:15:44;5.92;;;5.92;;
2710;SDS011;20721;47.402;8.550;2022-07-19T00:16:44;5.75;;;5.75;;
2710;SDS011;20721;47.402;8.550;2022-07-19T00:19:44;6.30;;;6.30;;
2710;SDS011;20721;47.402;8.550;2022-07-19T00:20:44;5.43;;;5.43;;
2710;SDS011;20721;47.402;8.550;2022-07-19T00:21:44;6.42;;;6.42;;
2710;SDS011;20721;47.402;8.550;2022-07-19T00:22:44;6.34;;;6.34;;
2710;SDS011;20721;47.402;8.550;2022-07-19T00:23:44;6.44;;;6.44;;
2710;SDS011;20721;47.402;8.550;2022-07-19T00:24:44;6.19;;;6.19;;
2710;SDS011;20721;47.402;8.550;2022-07-19T00:25:44;6.32;;;6.32;;
2710;SDS011;20721;47.402;8.550;2022-07-19T00:26:44;5.73;;;5.73;;
2710;SDS011;20721;47.402;8.550;2022-07-19T00:27:44;6.14;;;6.14;;
2710;SDS011;20721;47.402;8.550;2022-07-19T00:28:44;7.12;;;7.12;;
2710;SDS011;20721;47.402;8.550;2022-07-19T00:29:44;5.57;;;5.57;;
2710;SDS011;20721;47.402;8.550;2022-07-19T00:30:44;6.51;;;6.51;;
2710;SDS011;20721;47.402;8.550;2022-07-19T00:31:44;5.76;;;5.76;;
2710;SDS011;20721;47.402;8.550;2022-07-19T00:32:44;6.86;;;6.86;;
2710;SDS011;20721;47.402;8.550;2022-07-19T00:33:44;6.36;;;6.36;;
2710;SDS011;20721;47.402;8.550;2022-07-19T00:34:44;6.37;;;6.37;;
2710;SDS011;20721;47.402;8.550;2022-07-19T00:35:45;6.28;;;6.28;;
2710;SDS011;20721;47.402;8.550;2022-07-19T00:36:44;6.21;;;6.21;;
2710;SDS011;20721;47.402;8.550;2022-07-19T00:37:44;6.68;;;6.68;;
2710;SDS011;20721;47.402;8.550;2022-07-19T00:38:44;6.23;;;6.23;;
2710;SDS011;20721;47.402;8.550;2022-07-19T00:39:44;6.23;;;6.23;;
2710;SDS011;20721;47.402;8.550;2022-07-19T00:41:48;6.20;;;6.20;;
2710;SDS011;20721;47.402;8.550;2022-07-19T00:43:44;7.22;;;7.22;;
2710;SDS011;20721;47.402;8.550;2022-07-19T00:44:44;7.19;;;7.19;;
2710;SDS011;20721;47.402;8.550;2022-07-19T00:47:44;6.07;;;6.07;;
2710;SDS011;20721;47.402;8.550;2022-07-19T00:48:44;6.77;;;6.77;;
2710;SDS011;20721;47.402;8.550;2022-07-19T00:49:44;6.53;;;6.53;;
2710;SDS011;20721;47.402;8.550;2022-07-19T00:50:44;6.33;;;6.33;;
2710;SDS011;20721;47.402;8.550;2022-07-19T00:51:45;6.47;;;6.47;;
2710;SDS011;20721;47.402;8.550;2022-07-19T00:52:46;6.21;;;6.21;;
2710;SDS011;20721;47.402;8.550;2022-07-19T00:53:45;6.69;;;6.69;;
2710;SDS011;20721;47.402;8.550;2022-07-19T00:54:44;5.98;;;5.98;;
2710;SDS011;20721;47.402;8.550;2022-07-19T00:55:45;6.32;;;6.32;;
2710;SDS011;20721;47.402;8.550;2022-07-19T00:56:44;6.43;;;6.43;;
2710;SDS011;20721;47.402;8.550;2022-07-19T00:57:45;6.43;;;6.43;;
2710;SDS011;20721;47.402;8.550;2022-07-19T00:58:45;6.48;;;6.48;;
2710;SDS011;20721;47.402;8.550;2022-07-19T01:00:44;5.79;;;5.79;;
2710;SDS011;20721;47.402;8.550;2022-07-19T01:01:44;6.03;;;6.03;;
2710;SDS011;20721;47.402;8.550;2022-07-19T01:02:45;5.89;;;5.89;;
2710;SDS011;20721;47.402;8.550;2022-07-19T01:03:45;5.57;;;5.57;;
2710;SDS011;20721;47.402;8.550;2022-07-19T01:04:44;6.24;;;6.24;;
2710;SDS011;20721;47.402;8.550;2022-07-19T01:05:45;5.80;;;5.80;;
2710;SDS011;20721;47.402;8.550;2022-07-19T01:07:45;5.88;;;5.88;;
2710;SDS011;20721;47.402;8.550;2022-07-19T01:10:44;6.20;;;6.20;;
2710;SDS011;20721;47.402;8.550;2022-07-19T01:11:44;5.57;;;5.57;;
2710;SDS011;20721;47.402;8.550;2022-07-19T01:13:44;6.27;;;6.27;;
2710;SDS011;20721;47.402;8.550;2022-07-19T01:14:46;6.24;;;6.24;;
2710;SDS011;20721;47.402;8.550;2022-07-19T01:15:45;6.01;;;6.01;;
2710;SDS011;20721;47.402;8.550;2022-07-19T01:16:45;5.75;;;5.75;;
2710;SDS011;20721;47.402;8.550;2022-07-19T01:17:44;5.77;;;5.77;;
2710;SDS011;20721;47.402;8.550;2022-07-19T01:18:44;5.13;;;5.13;;
2710;SDS011;20721;47.402;8.550;2022-07-19T01:19:44;6.14;;;6.14;;
2710;SDS011;20721;47.402;8.550;2022-07-19T01:20:44;5.91;;;5.91;;
2710;SDS011;20721;47.402;8.550;2022-07-19T01:21:45;6.30;;;6.30;;
2710;SDS011;20721;47.402;8.550;2022-07-19T01:24:44;5.18;;;5.18;;
2710;SDS011;20721;47.402;8.550;2022-07-19T01:25:49;5.79;;;5.79;;
2710;SDS011;20721;47.402;8.550;2022-07-19T01:26:44;5.76;;;5.76;;
2710;SDS011;20721;47.402;8.550;2022-07-19T01:27:48;6.16;;;6.16;;
2710;SDS011;20721;47.402;8.550;2022-07-19T01:28:45;6.78;;;6.78;;
2710;SDS011;20721;47.402;8.550;2022-07-19T01:29:46;5.59;;;5.59;;
2710;SDS011;20721;47.402;8.550;2022-07-19T01:30:45;5.36;;;5.36;;
2710;SDS011;20721;47.402;8.550;2022-07-19T01:33:48;5.70;;;5.70;;
2710;SDS011;20721;47.402;8.550;2022-07-19T01:34:44;6.13;;;6.13;;
2710;SDS011;20721;47.402;8.550;2022-07-19T01:35:44;6.44;;;6.44;;
2710;SDS011;20721;47.402;8.550;2022-07-19T01:37:44;5.87;;;5.87;;
2710;SDS011;20721;47.402;8.550;2022-07-19T01:38:44;6.54;;;6.54;;
2710;SDS011;20721;47.402;8.550;2022-07-19T01:39:44;6.10;;;6.10;;
2710;SDS011;20721;47.402;8.550;2022-07-19T01:40:44;6.55;;;6.55;;
2710;SDS011;20721;47.402;8.550;2022-07-19T01:41:44;6.10;;;6.10;;
2710;SDS011;20721;47.402;8.550;2022-07-19T01:42:45;6.10;;;6.10;;
2710;SDS011;20721;47.402;8.550;2022-07-19T01:43:44;6.29;;;6.29;;
2710;SDS011;20721;47.402;8.550;2022-07-19T01:44:44;5.26;;;5.26;;
2710;SDS011;20721;47.402;8.550;2022-07-19T01:45:44;5.61;;;5.61;;
2710;SDS011;20721;47.402;8.550;2022-07-19T01:46:44;6.01;;;6.01;;
2710;SDS011;20721;47.402;8.550;2022-07-19T01:49:44;5.59;;;5.59;;
2710;SDS011;20721;47.402;8.550;2022-07-19T01:50:44;5.63;;;5.63;;
2710;SDS011;20721;47.402;8.550;2022-07-19T01:51:44;5.55;;;5.55;;
2710;SDS011;20721;47.402;8.550;2022-07-19T01:52:44;5.57;;;5.57;;
2710;SDS011;20721;47.402;8.550;2022-07-19T01:53:45;5.59;;;5.59;;
2710;SDS011;20721;47.402;8.550;2022-07-19T01:54:44;5.88;;;5.88;;
2710;SDS011;20721;47.402;8.550;2022-07-19T01:55:44;5.71;;;5.71;;
2710;SDS011;20721;47.402;8.550;2022-07-19T01:56:44;5.83;;;5.83;;
2710;SDS011;20721;47.402;8.550;2022-07-19T01:57:44;6.44;;;6.44;;
2710;SDS011;20721;47.402;8.550;2022-07-19T01:58:44;6.25;;;6.25;;
2710;SDS011;20721;47.402;8.550;2022-07-19T01:59:46;6.27;;;6.27;;
2710;SDS011;20721;47.402;8.550;2022-07-19T02:00:44;6.66;;;6.66;;
2710;SDS011;20721;47.402;8.550;2022-07-19T02:01:44;5.95;;;5.95;;
2710;SDS011;20721;47.402;8.550;2022-07-19T02:02:49;6.21;;;6.21;;
2710;SDS011;20721;47.402;8.550;2022-07-19T02:03:44;6.69;;;6.69;;
2710;SDS011;20721;47.402;8.550;2022-07-19T02:04:44;5.91;;;5.91;;
2710;SDS011;20721;47.402;8.550;2022-07-19T02:05:44;5.95;;;5.95;;
2710;SDS011;20721;47.402;8.550;2022-07-19T02:06:44;6.55;;;6.55;;
2710;SDS011;20721;47.402;8.550;2022-07-19T02:07:44;6.26;;;6.26;;
2710;SDS011;20721;47.402;8.550;2022-07-19T02:08:44;6.09;;;6.09;;
2710;SDS011;20721;47.402;8.550;2022-07-19T02:11:45;6.26;;;6.26;;
2710;SDS011;20721;47.402;8.550;2022-07-19T02:13:44;6.79;;;6.79;;
2710;SDS011;20721;47.402;8.550;2022-07-19T02:14:44;6.67;;;6.67;;
2710;SDS011;20721;47.402;8.550;2022-07-19T02:15:44;6.42;;;6.42;;
2710;SDS011;20721;47.402;8.550;2022-07-19T02:16:45;6.80;;;6.80;;
2710;SDS011;20721;47.402;8.550;2022-07-19T02:17:44;6.16;;;6.16;;
2710;SDS011;20721;47.402;8.550;2022-07-19T02:18:44;6.18;;;6.18;;
2710;SDS011;20721;47.402;8.550;2022-07-19T02:19:44;7.28;;;7.28;;
2710;SDS011;20721;47.402;8.550;2022-07-19T02:20:44;5.70;;;5.70;;
2710;SDS011;20721;47.402;8.550;2022-07-19T02:24:44;5.66;;;5.66;;
2710;SDS011;20721;47.402;8.550;2022-07-19T02:25:44;5.41;;;5.41;;
2710;SDS011;20721;47.402;8.550;2022-07-19T02:26:49;5.72;;;5.72;;
2710;SDS011;20721;47.402;8.550;2022-07-19T02:27:44;5.83;;;5.83;;
2710;SDS011;20721;47.402;8.550;2022-07-19T02:28:44;7.51;;;7.51;;
2710;SDS011;20721;47.402;8.550;2022-07-19T02:30:45;6.27;;;6.27;;
2710;SDS011;20721;47.402;8.550;2022-07-19T02:31:45;6.70;;;6.70;;
2710;SDS011;20721;47.402;8.550;2022-07-19T02:32:44;6.52;;;6.52;;
2710;SDS011;20721;47.402;8.550;2022-07-19T02:33:50;6.76;;;6.76;;
2710;SDS011;20721;47.402;8.550;2022-07-19T02:34:44;7.20;;;7.20;;
2710;SDS011;20721;47.402;8.550;2022-07-19T02:35:44;6.75;;;6.75;;
2710;SDS011;20721;47.402;8.550;2022-07-19T02:36:44;7.09;;;7.09;;
2710;SDS011;20721;47.402;8.550;2022-07-19T02:37:44;7.19;;;7.19;;
2710;SDS011;20721;47.402;8.550;2022-07-19T02:38:45;6.77;;;6.77;;
2710;SDS011;20721;47.402;8.550;2022-07-19T02:39:44;7.11;;;7.11;;
2710;SDS011;20721;47.402;8.550;2022-07-19T02:40:44;7.22;;;7.22;;
2710;SDS011;20721;47.402;8.550;2022-07-19T02:41:44;7.97;;;7.97;;
2710;SDS011;20721;47.402;8.550;2022-07-19T02:43:44;8.43;;;8.43;;
2710;SDS011;20721;47.402;8.550;2022-07-19T02:45:44;6.97;;;6.97;;
2710;SDS011;20721;47.402;8.550;2022-07-19T02:46:44;6.64;;;6.64;;
2710;SDS011;20721;47.402;8.550;2022-07-19T02:48:44;6.36;;;6.36;;
2710;SDS011;20721;47.402;8.550;2022-07-19T02:49:44;6.77;;;6.77;;
2710;SDS011;20721;47.402;8.550;2022-07-19T02:50:44;6.62;;;6.62;;
2710;SDS011;20721;47.402;8.550;2022-07-19T02:51:44;6.51;;;6.51;;
2710;SDS011;20721;47.402;8.550;2022-07-19T02:52:44;6.36;;;6.36;;
2710;SDS011;20721;47.402;8.550;2022-07-19T02:53:44;6.76;;;6.76;;
2710;SDS011;20721;47.402;8.550;2022-07-19T02:55:44;6.36;;;6.36;;
2710;SDS011;20721;47.402;8.550;2022-07-19T02:56:46;6.08;;;6.08;;
2710;SDS011;20721;47.402;8.550;2022-07-19T02:58:44;6.77;;;6.77;;
2710;SDS011;20721;47.402;8.550;2022-07-19T02:59:44;6.39;;;6.39;;
2710;SDS011;20721;47.402;8.550;2022-07-19T03:01:45;6.70;;;6.70;;
2710;SDS011;20721;47.402;8.550;2022-07-19T03:02:44;6.86;;;6.86;;
2710;SDS011;20721;47.402;8.550;2022-07-19T03:03:54;6.47;;;6.47;;
2710;SDS011;20721;47.402;8.550;2022-07-19T03:04:44;6.88;;;6.88;;
2710;SDS011;20721;47.402;8.550;2022-07-19T03:05:44;6.14;;;6.14;;
2710;SDS011;20721;47.402;8.550;2022-07-19T03:06:44;5.90;;;5.90;;
2710;SDS011;20721;47.402;8.550;2022-07-19T03:07:45;6.63;;;6.63;;
2710;SDS011;20721;47.402;8.550;2022-07-19T03:08:44;6.38;;;6.38;;
2710;SDS011;20721;47.402;8.550;2022-07-19T03:09:44;5.94;;;5.94;;
2710;SDS011;20721;47.402;8.550;2022-07-19T03:10:44;6.02;;;6.02;;
2710;SDS011;20721;47.402;8.550;2022-07-19T03:11:44;6.96;;;6.96;;
2710;SDS011;20721;47.402;8.550;2022-07-19T03:12:45;5.78;;;5.78;;
2710;SDS011;20721;47.402;8.550;2022-07-19T03:13:45;6.88;;;6.88;;
2710;SDS011;20721;47.402;8.550;2022-07-19T03:14:44;6.72;;;6.72;;
2710;SDS011;20721;47.402;8.550;2022-07-19T03:15:45;6.61;;;6.61;;
2710;SDS011;20721;47.402;8.550;2022-07-19T03:16:44;6.22;;;6.22;;
2710;SDS011;20721;47.402;8.550;2022-07-19T03:17:44;6.68;;;6.68;;
2710;SDS011;20721;47.402;8.550;2022-07-19T03:19:44;6.53;;;6.53;;
2710;SDS011;20721;47.402;8.550;2022-07-19T03:21:45;6.09;;;6.09;;
2710;SDS011;20721;47.402;8.550;2022-07-19T03:22:44;5.98;;;5.98;;
2710;SDS011;20721;47.402;8.550;2022-07-19T03:23:45;6.22;;;6.22;;
2710;SDS011;20721;47.402;8.550;2022-07-19T03:24:44;6.27;;;6.27;;
2710;SDS011;20721;47.402;8.550;2022-07-19T03:25:44;6.49;;;6.49;;
2710;SDS011;20721;47.402;8.550;2022-07-19T03:26:44;6.75;;;6.75;;
2710;SDS011;20721;47.402;8.550;2022-07-19T03:27:44;6.03;;;6.03;;
2710;SDS011;20721;47.402;8.550;2022-07-19T03:28:44;6.64;;;6.64;;
2710;SDS011;20721;47.402;8.550;2022-07-19T03:29:44;6.54;;;6.54;;
2710;SDS011;20721;47.402;8.550;2022-07-19T03:30:44;6.26;;;6.26;;
2710;SDS011;20721;47.402;8.550;2022-07-19T03:31:45;6.13;;;6.13;;
2710;SDS011;20721;47.402;8.550;2022-07-19T03:32:44;6.65;;;6.65;;
2710;SDS011;20721;47.402;8.550;2022-07-19T03:34:44;6.35;;;6.35;;
2710;SDS011;20721;47.402;8.550;2022-07-19T03:35:45;6.47;;;6.47;;
2710;SDS011;20721;47.402;8.550;2022-07-19T03:36:44;5.88;;;5.88;;
2710;SDS011;20721;47.402;8.550;2022-07-19T03:37:45;6.60;;;6.60;;
2710;SDS011;20721;47.402;8.550;2022-07-19T03:38:44;6.57;;;6.56;;
2710;SDS011;20721;47.402;8.550;2022-07-19T03:39:44;6.15;;;6.15;;
2710;SDS011;20721;47.402;8.550;2022-07-19T03:40:44;6.70;;;6.70;;
2710;SDS011;20721;47.402;8.550;2022-07-19T03:41:45;6.68;;;6.68;;
2710;SDS011;20721;47.402;8.550;2022-07-19T03:42:44;6.17;;;6.17;;
2710;SDS011;20721;47.402;8.550;2022-07-19T03:43:46;6.74;;;6.74;;
2710;SDS011;20721;47.402;8.550;2022-07-19T03:44:45;6.70;;;6.70;;
2710;SDS011;20721;47.402;8.550;2022-07-19T03:45:44;7.14;;;7.14;;
2710;SDS011;20721;47.402;8.550;2022-07-19T03:46:44;6.24;;;6.24;;
2710;SDS011;20721;47.402;8.550;2022-07-19T03:47:45;6.28;;;6.28;;
2710;SDS011;20721;47.402;8.550;2022-07-19T03:48:44;6.90;;;6.90;;
2710;SDS011;20721;47.402;8.550;2022-07-19T03:49:44;6.64;;;6.64;;
2710;SDS011;20721;47.402;8.550;2022-07-19T03:50:45;6.73;;;6.73;;
2710;SDS011;20721;47.402;8.550;2022-07-19T03:51:45;6.70;;;6.70;;
2710;SDS011;20721;47.402;8.550;2022-07-19T03:52:44;6.57;;;6.57;;
2710;SDS011;20721;47.402;8.550;2022-07-19T03:53:45;6.30;;;6.30;;
2710;SDS011;20721;47.402;8.550;2022-07-19T03:54:44;6.73;;;6.73;;
2710;SDS011;20721;47.402;8.550;2022-07-19T03:55:44;6.99;;;6.99;;
2710;SDS011;20721;47.402;8.550;2022-07-19T03:56:44;6.71;;;6.71;;
2710;SDS011;20721;47.402;8.550;2022-07-19T03:57:44;7.03;;;7.03;;
2710;SDS011;20721;47.402;8.550;2022-07-19T03:58:44;6.24;;;6.24;;
2710;SDS011;20721;47.402;8.550;2022-07-19T04:00:44;6.57;;;6.57;;
2710;SDS011;20721;47.402;8.550;2022-07-19T04:01:45;6.78;;;6.78;;
2710;SDS011;20721;47.402;8.550;2022-07-19T04:02:44;6.45;;;6.45;;
2710;SDS011;20721;47.402;8.550;2022-07-19T04:03:47;6.41;;;6.41;;
2710;SDS011;20721;47.402;8.550;2022-07-19T04:05:44;7.29;;;7.29;;
2710;SDS011;20721;47.402;8.550;2022-07-19T04:06:44;6.70;;;6.70;;
2710;SDS011;20721;47.402;8.550;2022-07-19T04:07:45;7.27;;;7.27;;
2710;SDS011;20721;47.402;8.550;2022-07-19T04:08:48;6.51;;;6.51;;
2710;SDS011;20721;47.402;8.550;2022-07-19T04:09:44;5.97;;;5.97;;
2710;SDS011;20721;47.402;8.550;2022-07-19T04:10:44;6.43;;;6.43;;
2710;SDS011;20721;47.402;8.550;2022-07-19T04:11:45;6.59;;;6.59;;
2710;SDS011;20721;47.402;8.550;2022-07-19T04:12:44;6.68;;;6.68;;
2710;SDS011;20721;47.402;8.550;2022-07-19T04:13:45;6.20;;;6.20;;
2710;SDS011;20721;47.402;8.550;2022-07-19T04:14:44;6.45;;;6.45;;
2710;SDS011;20721;47.402;8.550;2022-07-19T04:15:44;6.98;;;6.98;;
2710;SDS011;20721;47.402;8.550;2022-07-19T04:16:44;7.05;;;7.05;;
2710;SDS011;20721;47.402;8.550;2022-07-19T04:17:44;6.98;;;6.98;;
2710;SDS011;20721;47.402;8.550;2022-07-19T04:18:44;7.19;;;7.19;;
2710;SDS011;20721;47.402;8.550;2022-07-19T04:19:45;6.56;;;6.56;;
2710;SDS011;20721;47.402;8.550;2022-07-19T04:20:44;6.61;;;6.61;;
2710;SDS011;20721;47.402;8.550;2022-07-19T04:21:46;7.07;;;7.07;;
2710;SDS011;20721;47.402;8.550;2022-07-19T04:22:44;6.57;;;6.57;;
2710;SDS011;20721;47.402;8.550;2022-07-19T04:23:44;6.75;;;6.75;;
2710;SDS011;20721;47.402;8.550;2022-07-19T04:24:44;6.99;;;6.99;;
2710;SDS011;20721;47.402;8.550;2022-07-19T04:25:44;7.90;;;7.90;;
2710;SDS011;20721;47.402;8.550;2022-07-19T04:26:44;6.29;;;6.29;;
2710;SDS011;20721;47.402;8.550;2022-07-19T04:27:45;6.61;;;6.61;;
2710;SDS011;20721;47.402;8.550;2022-07-19T04:28:44;6.94;;;6.94;;
2710;SDS011;20721;47.402;8.550;2022-07-19T04:29:44;6.44;;;6.44;;
2710;SDS011;20721;47.402;8.550;2022-07-19T04:30:44;6.79;;;6.79;;
2710;SDS011;20721;47.402;8.550;2022-07-19T04:31:45;7.33;;;7.33;;
2710;SDS011;20721;47.402;8.550;2022-07-19T04:32:44;6.84;;;6.84;;
2710;SDS011;20721;47.402;8.550;2022-07-19T04:33:44;6.51;;;6.51;;
2710;SDS011;20721;47.402;8.550;2022-07-19T04:36:44;7.53;;;7.53;;
2710;SDS011;20721;47.402;8.550;2022-07-19T04:37:44;6.55;;;6.55;;
2710;SDS011;20721;47.402;8.550;2022-07-19T04:38:44;7.24;;;7.24;;
2710;SDS011;20721;47.402;8.550;2022-07-19T04:39:44;7.17;;;7.17;;
2710;SDS011;20721;47.402;8.550;2022-07-19T04:40:46;6.72;;;6.72;;
2710;SDS011;20721;47.402;8.550;2022-07-19T04:41:45;6.89;;;6.89;;
2710;SDS011;20721;47.402;8.550;2022-07-19T04:42:45;7.11;;;7.11;;
2710;SDS011;20721;47.402;8.550;2022-07-19T04:43:44;6.71;;;6.71;;
2710;SDS011;20721;47.402;8.550;2022-07-19T04:44:44;6.82;;;6.82;;
2710;SDS011;20721;47.402;8.550;2022-07-19T04:45:44;6.23;;;6.23;;
2710;SDS011;20721;47.402;8.550;2022-07-19T04:46:44;6.86;;;6.86;;
2710;SDS011;20721;47.402;8.550;2022-07-19T04:47:44;7.81;;;7.81;;
2710;SDS011;20721;47.402;8.550;2022-07-19T04:48:44;7.06;;;7.06;;
2710;SDS011;20721;47.402;8.550;2022-07-19T04:49:45;7.47;;;7.47;;
2710;SDS011;20721;47.402;8.550;2022-07-19T04:50:44;6.71;;;6.71;;
2710;SDS011;20721;47.402;8.550;2022-07-19T04:51:45;6.65;;;6.65;;
2710;SDS011;20721;47.402;8.550;2022-07-19T04:52:44;7.55;;;7.55;;
2710;SDS011;20721;47.402;8.550;2022-07-19T04:53:50;7.13;;;7.13;;
2710;SDS011;20721;47.402;8.550;2022-07-19T04:54:44;7.34;;;7.34;;
2710;SDS011;20721;47.402;8.550;2022-07-19T04:55:46;7.35;;;7.35;;
2710;SDS011;20721;47.402;8.550;2022-07-19T04:56:44;7.53;;;7.53;;
2710;SDS011;20721;47.402;8.550;2022-07-19T04:57:44;7.58;;;7.58;;
2710;SDS011;20721;47.402;8.550;2022-07-19T04:58:46;7.18;;;7.18;;
2710;SDS011;20721;47.402;8.550;2022-07-19T04:59:44;6.29;;;6.29;;
2710;SDS011;20721;47.402;8.550;2022-07-19T05:00:44;7.25;;;7.25;;
2710;SDS011;20721;47.402;8.550;2022-07-19T05:01:45;7.07;;;7.07;;
2710;SDS011;20721;47.402;8.550;2022-07-19T05:02:46;6.97;;;6.97;;
2710;SDS011;20721;47.402;8.550;2022-07-19T05:03:44;6.65;;;6.65;;
2710;SDS011;20721;47.402;8.550;2022-07-19T05:04:45;6.95;;;6.95;;
2710;SDS011;20721;47.402;8.550;2022-07-19T05:05:44;7.69;;;7.69;;
2710;SDS011;20721;47.402;8.550;2022-07-19T05:06:44;7.29;;;7.29;;
2710;SDS011;20721;47.402;8.550;2022-07-19T05:07:45;7.53;;;7.53;;
2710;SDS011;20721;47.402;8.550;2022-07-19T05:08:44;6.74;;;6.74;;
2710;SDS011;20721;47.402;8.550;2022-07-19T05:09:44;7.21;;;7.21;;
2710;SDS011;20721;47.402;8.550;2022-07-19T05:10:45;7.30;;;7.30;;
2710;SDS011;20721;47.402;8.550;2022-07-19T05:11:45;6.96;;;6.96;;
2710;SDS011;20721;47.402;8.550;2022-07-19T05:12:44;6.77;;;6.77;;
2710;SDS011;20721;47.402;8.550;2022-07-19T05:13:45;6.50;;;6.50;;
2710;SDS011;20721;47.402;8.550;2022-07-19T05:14:45;6.93;;;6.93;;
2710;SDS011;20721;47.402;8.550;2022-07-19T05:15:45;6.38;;;6.38;;
2710;SDS011;20721;47.402;8.550;2022-07-19T05:16:45;6.38;;;6.38;;
2710;SDS011;20721;47.402;8.550;2022-07-19T05:17:45;6.98;;;6.98;;
2710;SDS011;20721;47.402;8.550;2022-07-19T05:18:44;6.97;;;6.97;;
2710;SDS011;20721;47.402;8.550;2022-07-19T05:19:44;7.27;;;7.27;;
2710;SDS011;20721;47.402;8.550;2022-07-19T05:20:44;8.21;;;8.21;;
2710;SDS011;20721;47.402;8.550;2022-07-19T05:21:45;7.16;;;7.16;;
2710;SDS011;20721;47.402;8.550;2022-07-19T05:22:44;7.18;;;7.18;;
2710;SDS011;20721;47.402;8.550;2022-07-19T05:24:44;7.25;;;7.25;;
2710;SDS011;20721;47.402;8.550;2022-07-19T05:25:44;7.52;;;7.52;;
2710;SDS011;20721;47.402;8.550;2022-07-19T05:26:45;7.65;;;7.65;;
2710;SDS011;20721;47.402;8.550;2022-07-19T05:27:45;7.54;;;7.54;;
2710;SDS011;20721;47.402;8.550;2022-07-19T05:28:46;6.81;;;6.81;;
2710;SDS011;20721;47.402;8.550;2022-07-19T05:29:45;7.54;;;7.54;;
2710;SDS011;20721;47.402;8.550;2022-07-19T05:30:44;7.78;;;7.78;;
2710;SDS011;20721;47.402;8.550;2022-07-19T05:31:45;7.43;;;7.43;;
2710;SDS011;20721;47.402;8.550;2022-07-19T05:32:44;6.84;;;6.84;;
2710;SDS011;20721;47.402;8.550;2022-07-19T05:33:44;7.82;;;7.82;;
2710;SDS011;20721;47.402;8.550;2022-07-19T05:34:44;7.65;;;7.65;;
2710;SDS011;20721;47.402;8.550;2022-07-19T05:35:46;7.26;;;7.26;;
2710;SDS011;20721;47.402;8.550;2022-07-19T05:36:44;7.47;;;7.47;;
2710;SDS011;20721;47.402;8.550;2022-07-19T05:37:44;7.50;;;7.49;;
2710;SDS011;20721;47.402;8.550;2022-07-19T05:38:45;7.14;;;7.14;;
2710;SDS011;20721;47.402;8.550;2022-07-19T05:39:44;7.25;;;7.25;;
2710;SDS011;20721;47.402;8.550;2022-07-19T05:40:44;7.73;;;7.73;;
2710;SDS011;20721;47.402;8.550;2022-07-19T05:41:45;6.37;;;6.37;;
2710;SDS011;20721;47.402;8.550;2022-07-19T05:42:44;6.79;;;6.79;;
2710;SDS011;20721;47.402;8.550;2022-07-19T05:43:45;7.33;;;7.33;;
2710;SDS011;20721;47.402;8.550;2022-07-19T05:44:50;6.75;;;6.75;;
2710;SDS011;20721;47.402;8.550;2022-07-19T05:45:45;7.36;;;7.36;;
2710;SDS011;20721;47.402;8.550;2022-07-19T05:46:51;6.96;;;6.96;;
2710;SDS011;20721;47.402;8.550;2022-07-19T05:47:45;6.41;;;6.41;;
2710;SDS011;20721;47.402;8.550;2022-07-19T05:48:44;7.89;;;7.89;;
2710;SDS011;20721;47.402;8.550;2022-07-19T05:49:44;8.00;;;8.00;;
2710;SDS011;20721;47.402;8.550;2022-07-19T05:50:44;7.83;;;7.83;;
2710;SDS011;20721;47.402;8.550;2022-07-19T05:51:46;8.05;;;8.05;;
2710;SDS011;20721;47.402;8.550;2022-07-19T05:52:48;7.42;;;7.42;;
2710;SDS011;20721;47.402;8.550;2022-07-19T05:53:45;7.73;;;7.73;;
2710;SDS011;20721;47.402;8.550;2022-07-19T05:54:44;7.93;;;7.93;;
2710;SDS011;20721;47.402;8.550;2022-07-19T05:55:45;8.32;;;8.32;;
2710;SDS011;20721;47.402;8.550;2022-07-19T05:56:45;7.20;;;7.20;;
2710;SDS011;20721;47.402;8.550;2022-07-19T05:57:45;7.31;;;7.31;;
2710;SDS011;20721;47.402;8.550;2022-07-19T05:58:45;6.83;;;6.83;;
2710;SDS011;20721;47.402;8.550;2022-07-19T05:59:45;6.88;;;6.88;;
2710;SDS011;20721;47.402;8.550;2022-07-19T06:00:45;7.63;;;7.63;;
2710;SDS011;20721;47.402;8.550;2022-07-19T06:01:45;7.54;;;7.54;;
2710;SDS011;20721;47.402;8.550;2022-07-19T06:02:45;7.59;;;7.59;;
2710;SDS011;20721;47.402;8.550;2022-07-19T06:03:46;7.33;;;7.33;;
2710;SDS011;20721;47.402;8.550;2022-07-19T06:04:45;7.51;;;7.51;;
2710;SDS011;20721;47.402;8.550;2022-07-19T06:05:44;7.04;;;7.04;;
2710;SDS011;20721;47.402;8.550;2022-07-19T06:06:45;6.67;;;6.67;;
2710;SDS011;20721;47.402;8.550;2022-07-19T06:07:45;7.40;;;7.40;;
2710;SDS011;20721;47.402;8.550;2022-07-19T06:08:45;6.87;;;6.87;;
2710;SDS011;20721;47.402;8.550;2022-07-19T06:09:44;7.59;;;7.59;;
2710;SDS011;20721;47.402;8.550;2022-07-19T06:10:46;6.41;;;6.41;;
2710;SDS011;20721;47.402;8.550;2022-07-19T06:11:46;6.94;;;6.94;;
2710;SDS011;20721;47.402;8.550;2022-07-19T06:12:46;7.24;;;7.24;;
2710;SDS011;20721;47.402;8.550;2022-07-19T06:13:46;7.26;;;7.26;;
2710;SDS011;20721;47.402;8.550;2022-07-19T06:14:45;6.97;;;6.97;;
2710;SDS011;20721;47.402;8.550;2022-07-19T06:15:45;6.99;;;6.99;;
2710;SDS011;20721;47.402;8.550;2022-07-19T06:16:46;6.97;;;6.97;;
2710;SDS011;20721;47.402;8.550;2022-07-19T06:17:45;7.45;;;7.45;;
2710;SDS011;20721;47.402;8.550;2022-07-19T06:18:46;6.82;;;6.82;;
2710;SDS011;20721;47.402;8.550;2022-07-19T06:19:45;7.33;;;7.33;;
2710;SDS011;20721;47.402;8.550;2022-07-19T06:20:45;6.80;;;6.80;;
2710;SDS011;20721;47.402;8.550;2022-07-19T06:21:45;6.83;;;6.83;;
2710;SDS011;20721;47.402;8.550;2022-07-19T06:22:45;6.88;;;6.88;;
2710;SDS011;20721;47.402;8.550;2022-07-19T06:23:57;6.45;;;6.45;;
2710;SDS011;20721;47.402;8.550;2022-07-19T06:24:45;6.37;;;6.37;;
2710;SDS011;20721;47.402;8.550;2022-07-19T06:25:45;6.87;;;6.87;;
2710;SDS011;20721;47.402;8.550;2022-07-19T06:26:45;6.52;;;6.52;;
2710;SDS011;20721;47.402;8.550;2022-07-19T06:27:45;6.21;;;6.21;;
2710;SDS011;20721;47.402;8.550;2022-07-19T06:28:51;6.54;;;6.54;;
2710;SDS011;20721;47.402;8.550;2022-07-19T06:29:45;6.22;;;6.22;;
2710;SDS011;20721;47.402;8.550;2022-07-19T06:30:45;7.09;;;7.09;;
2710;SDS011;20721;47.402;8.550;2022-07-19T06:31:45;6.63;;;6.63;;
2710;SDS011;20721;47.402;8.550;2022-07-19T06:32:45;6.58;;;6.58;;
2710;SDS011;20721;47.402;8.550;2022-07-19T06:33:45;6.47;;;6.47;;
2710;SDS011;20721;47.402;8.550;2022-07-19T06:34:46;7.17;;;7.17;;
2710;SDS011;20721;47.402;8.550;2022-07-19T06:35:45;6.47;;;6.47;;
2710;SDS011;20721;47.402;8.550;2022-07-19T06:36:45;6.63;;;6.63;;
2710;SDS011;20721;47.402;8.550;2022-07-19T06:37:45;6.85;;;6.85;;
2710;SDS011;20721;47.402;8.550;2022-07-19T06:38:45;6.07;;;6.07;;
2710;SDS011;20721;47.402;8.550;2022-07-19T06:39:45;6.60;;;6.60;;
2710;SDS011;20721;47.402;8.550;2022-07-19T06:40:45;6.69;;;6.69;;
2710;SDS011;20721;47.402;8.550;2022-07-19T06:41:45;6.03;;;6.03;;
2710;SDS011;20721;47.402;8.550;2022-07-19T06:42:45;6.81;;;6.81;;
2710;SDS011;20721;47.402;8.550;2022-07-19T06:43:45;5.89;;;5.89;;
2710;SDS011;20721;47.402;8.550;2022-07-19T06:44:46;6.30;;;6.30;;
2710;SDS011;20721;47.402;8.550;2022-07-19T06:45:45;6.81;;;6.81;;
2710;SDS011;20721;47.402;8.550;2022-07-19T06:46:46;6.72;;;6.72;;
2710;SDS011;20721;47.402;8.550;2022-07-19T06:47:45;6.88;;;6.88;;
2710;SDS011;20721;47.402;8.550;2022-07-19T06:48:46;6.88;;;6.88;;